createdAt,value
2022-08-10T00:01:54.622Z,2.83
2022-08-10T00:04:24.196Z,3.28
2022-08-10T00:06:53.651Z,2.58
2022-08-10T00:09:22.945Z,2.67
2022-08-10T00:11:50.636Z,2.40
2022-08-10T00:14:18.926Z,2.08
2022-08-10T00:16:47.305Z,2.50
2022-08-10T00:19:17.374Z,2.17
2022-08-10T00:21:47.451Z,2.42
2022-08-10T00:24:15.817Z,2.30
2022-08-10T00:27:52.144Z,1.95
2022-08-10T00:29:32.038Z,1.80
2022-08-10T00:31:59.837Z,2.05
2022-08-10T00:34:29.431Z,2.38
2022-08-10T00:36:57.566Z,2.40
2022-08-10T00:39:26.145Z,1.88
2022-08-10T00:42:02.169Z,1.75
2022-08-10T00:44:40.482Z,1.77
2022-08-10T00:47:22.682Z,1.98
2022-08-10T00:49:59.596Z,2.08
2022-08-10T00:52:29.749Z,1.55
2022-08-10T00:54:59.379Z,2.00
2022-08-10T00:57:27.817Z,1.30
2022-08-10T00:59:58.896Z,1.88
2022-08-10T01:02:30.327Z,1.77
2022-08-10T01:05:04.440Z,1.40
2022-08-10T01:07:56.212Z,1.42
2022-08-10T01:10:53.608Z,1.67
2022-08-10T01:13:32.737Z,1.45
2022-08-10T01:16:13.370Z,1.10
2022-08-10T01:18:48.179Z,1.83
2022-08-10T01:21:54.167Z,1.63
2022-08-10T01:24:51.310Z,1.52
2022-08-10T01:30:08.729Z,1.27
2022-08-10T01:32:50.644Z,1.00
2022-08-10T01:35:27.554Z,1.73
2022-08-10T01:38:21.385Z,1.60
2022-08-10T01:41:11.894Z,1.73
2022-08-10T01:43:43.899Z,1.70
2022-08-10T01:46:14.908Z,1.52
2022-08-10T01:48:50.379Z,1.88
2022-08-10T01:51:23.684Z,1.60
2022-08-10T01:53:58.163Z,1.50
2022-08-10T01:56:30.736Z,1.35
2022-08-10T01:59:02.731Z,1.85
2022-08-10T02:01:35.787Z,1.33
2022-08-10T02:04:07.284Z,1.50
2022-08-10T02:06:47.488Z,1.60
2022-08-10T02:09:26.688Z,1.63
2022-08-10T02:12:07.123Z,1.40
2022-08-10T02:14:40.630Z,1.67
2022-08-10T02:17:57.874Z,1.10
2022-08-10T02:20:06.548Z,1.55
2022-08-10T02:22:38.870Z,2.33
2022-08-10T02:25:08.904Z,1.60
2022-08-10T02:27:38.334Z,1.45
2022-08-10T02:30:08.398Z,1.80
2022-08-10T02:32:38.628Z,2.70
2022-08-10T02:35:19.424Z,1.77
2022-08-10T02:37:53.165Z,1.85
2022-08-10T02:45:08.286Z,1.52
2022-08-10T02:45:19.722Z,1.50
2022-08-10T02:46:29.543Z,1.65
2022-08-10T02:49:05.168Z,1.70
2022-08-10T02:52:06.611Z,1.48
2022-08-10T02:54:37.296Z,1.77
2022-08-10T02:57:25.091Z,1.35
2022-08-10T02:59:55.725Z,1.88
2022-08-10T03:02:27.984Z,1.77
2022-08-10T03:05:03.261Z,1.83
2022-08-10T03:07:43.886Z,1.40
2022-08-10T03:10:34.223Z,1.15
2022-08-10T03:13:05.376Z,1.38
2022-08-10T03:15:35.209Z,1.52
2022-08-10T03:18:05.557Z,1.40
2022-08-10T03:20:40.424Z,1.70
2022-08-10T03:23:16.811Z,1.30
2022-08-10T03:25:53.691Z,1.70
2022-08-10T03:28:32.785Z,1.80
2022-08-10T03:31:01.766Z,1.42
2022-08-10T03:33:33.624Z,1.48
2022-08-10T03:36:43.507Z,1.80
2022-08-10T03:38:51.934Z,1.65
2022-08-10T03:41:26.633Z,1.55
2022-08-10T03:43:59.935Z,1.45
2022-08-10T03:50:27.745Z,2.25
2022-08-10T03:53:02.879Z,1.95
2022-08-10T03:56:28.562Z,1.80
2022-08-10T03:58:20.583Z,1.55
2022-08-10T04:00:51.248Z,1.50
2022-08-10T04:03:20.761Z,1.52
2022-08-10T04:05:48.616Z,1.48
2022-08-10T04:08:16.727Z,1.25
2022-08-10T04:10:44.304Z,1.55
2022-08-10T04:13:12.324Z,1.52
2022-08-10T04:15:39.920Z,1.73
2022-08-10T04:18:07.488Z,1.95
2022-08-10T04:20:53.374Z,1.40
2022-08-10T04:23:25.480Z,1.42
2022-08-10T04:25:54.328Z,1.95
2022-08-10T04:28:22.787Z,1.85
2022-08-10T04:30:52.842Z,1.88
2022-08-10T04:33:22.781Z,1.70
2022-08-10T04:35:53.309Z,1.73
2022-08-10T04:38:23.596Z,2.05
2022-08-10T04:40:51.847Z,1.52
2022-08-10T04:43:20.163Z,1.55
2022-08-10T04:45:51.717Z,1.60
2022-08-10T04:48:40.781Z,1.23
2022-08-10T04:51:17.638Z,1.70
2022-08-10T04:54:02.653Z,2.10
2022-08-10T04:56:32.404Z,1.90
2022-08-10T04:59:00.990Z,1.60
2022-08-10T05:02:22.399Z,1.27
2022-08-10T05:04:35.955Z,1.42
2022-08-10T05:07:10.824Z,1.60
2022-08-10T05:10:01.359Z,1.38
2022-08-10T05:12:27.898Z,1.52
2022-08-10T05:14:55.604Z,1.88
2022-08-10T05:17:24.782Z,1.73
2022-08-10T05:20:05.034Z,1.23
2022-08-10T05:22:42.447Z,1.55
2022-08-10T05:25:15.270Z,1.95
2022-08-10T05:27:44.009Z,1.50
2022-08-10T05:30:15.727Z,1.65
2022-08-10T05:32:56.080Z,2.25
2022-08-10T05:38:11.629Z,1.38
2022-08-10T05:40:47.300Z,1.65
2022-08-10T05:43:22.026Z,1.60
2022-08-10T05:46:18.650Z,1.95
2022-08-10T05:48:58.792Z,1.73
2022-08-10T05:51:29.884Z,2.17
2022-08-10T05:54:04.731Z,1.83
2022-08-10T05:56:54.870Z,1.75
2022-08-10T06:00:32.896Z,1.77
2022-08-10T06:02:34.986Z,2.17
2022-08-10T06:05:10.017Z,1.85
2022-08-10T06:07:41.574Z,1.40
2022-08-10T06:10:13.802Z,1.75
2022-08-10T06:12:55.280Z,1.50
2022-08-10T06:15:43.343Z,1.83
2022-08-10T06:18:17.098Z,1.75
2022-08-10T06:20:46.317Z,1.23
2022-08-10T06:23:14.791Z,1.45
2022-08-10T06:26:10.671Z,1.35
2022-08-10T06:28:34.669Z,1.27
2022-08-10T06:31:04.743Z,1.70
2022-08-10T06:33:36.258Z,1.20
2022-08-10T06:36:07.767Z,1.52
2022-08-10T06:38:39.813Z,1.45
2022-08-10T06:41:19.989Z,1.30
2022-08-10T06:43:55.988Z,1.15
2022-08-10T06:46:26.430Z,1.85
2022-08-10T06:48:59.193Z,1.60
2022-08-10T06:51:34.767Z,1.42
2022-08-10T06:54:14.707Z,1.58
2022-08-10T06:57:01.659Z,1.30
2022-08-10T06:59:45.541Z,1.48
2022-08-10T07:02:21.194Z,1.52
2022-08-10T07:04:55.536Z,1.10
2022-08-10T07:07:27.920Z,1.40
2022-08-10T07:09:57.920Z,1.75
2022-08-10T07:12:27.508Z,1.73
2022-08-10T07:14:57.434Z,1.73
2022-08-10T07:17:26.934Z,1.00
2022-08-10T07:19:59.980Z,1.10
2022-08-10T07:23:27.212Z,1.88
2022-08-10T07:25:25.237Z,1.27
2022-08-10T07:27:59.932Z,2.10
2022-08-10T07:30:32.923Z,0.98
2022-08-10T07:33:02.094Z,1.50
2022-08-10T07:35:41.410Z,1.55
2022-08-10T07:38:19.863Z,1.10
2022-08-10T07:40:50.371Z,1.40
2022-08-10T07:43:22.408Z,1.60
2022-08-10T07:45:50.989Z,1.13
2022-08-10T07:48:33.071Z,1.35
2022-08-10T07:51:03.599Z,1.30
2022-08-10T07:53:38.488Z,1.50
2022-08-10T07:56:21.281Z,1.35
2022-08-10T07:59:04.941Z,1.38
2022-08-10T08:01:35.925Z,1.60
2022-08-10T08:04:11.807Z,1.17
2022-08-10T08:06:41.810Z,1.50
2022-08-10T08:09:11.222Z,1.55
2022-08-10T08:11:42.636Z,1.15
2022-08-10T08:14:11.899Z,1.55
2022-08-10T08:16:44.075Z,1.55
2022-08-10T08:19:37.494Z,1.33
2022-08-10T08:24:05.431Z,1.40
2022-08-10T08:24:52.464Z,1.40
2022-08-10T08:27:21.804Z,1.65
2022-08-10T08:29:51.243Z,1.48
2022-08-10T08:32:24.307Z,1.27
2022-08-10T08:34:59.981Z,1.40
2022-08-10T08:38:31.445Z,1.20
2022-08-10T08:40:33.855Z,1.45
2022-08-10T08:43:15.730Z,1.65
2022-08-10T08:46:01.778Z,1.80
2022-08-10T08:48:59.871Z,1.45
2022-08-10T08:52:09.514Z,1.42
2022-08-10T08:54:51.578Z,1.30
2022-08-10T08:57:51.182Z,2.65
2022-08-10T09:00:48.545Z,1.42
2022-08-10T09:03:51.858Z,2.13
2022-08-10T09:06:37.230Z,1.33
2022-08-10T09:09:45.229Z,1.30
2022-08-10T09:12:41.166Z,1.85
2022-08-10T09:15:40.789Z,1.77
2022-08-10T09:18:42.051Z,3.50
2022-08-10T09:21:58.579Z,1.77
2022-08-10T09:24:53.890Z,1.38
2022-08-10T09:27:26.565Z,1.42
2022-08-10T09:29:58.299Z,1.75
2022-08-10T09:36:15.857Z,1.35
2022-08-10T09:36:25.145Z,1.48
2022-08-10T09:39:03.534Z,1.02
2022-08-10T09:42:05.925Z,1.20
2022-08-10T09:45:02.982Z,1.48
2022-08-10T09:48:02.003Z,1.33
2022-08-10T09:51:34.539Z,1.27
2022-08-10T09:53:52.975Z,1.60
2022-08-10T09:56:41.199Z,2.08
2022-08-10T09:59:26.938Z,0.90
2022-08-10T10:02:13.365Z,1.30
2022-08-10T10:05:05.117Z,1.33
2022-08-10T10:07:38.474Z,1.42
2022-08-10T10:10:30.609Z,1.17
2022-08-10T10:13:18.338Z,1.13
2022-08-10T10:16:28.650Z,1.55
2022-08-10T10:19:15.539Z,1.30
2022-08-10T10:22:26.011Z,4.10
2022-08-10T10:25:19.981Z,1.88
2022-08-10T10:28:10.548Z,1.30
2022-08-10T10:30:53.072Z,2.75
2022-08-10T10:33:36.837Z,1.17
2022-08-10T10:36:07.868Z,1.08
2022-08-10T10:38:38.224Z,1.27
2022-08-10T10:41:20.239Z,1.20
2022-08-10T10:44:12.556Z,1.30
2022-08-10T10:47:09.601Z,1.53
2022-08-10T10:49:59.224Z,1.17
2022-08-10T10:52:58.307Z,1.20
2022-08-10T10:56:13.787Z,1.20
2022-08-10T10:58:28.797Z,1.17
2022-08-10T11:01:21.336Z,0.90
2022-08-10T11:04:01.186Z,1.13
2022-08-10T11:06:47.730Z,0.95
2022-08-10T11:10:09.792Z,1.50
2022-08-10T11:12:26.218Z,0.90
2022-08-10T11:15:22.337Z,1.30
2022-08-10T11:17:57.040Z,0.95
2022-08-10T11:20:33.494Z,1.33
2022-08-10T11:23:28.581Z,0.70
2022-08-10T11:26:04.512Z,0.93
2022-08-10T11:29:01.130Z,1.00
2022-08-10T11:31:56.251Z,1.00
2022-08-10T11:34:48.367Z,1.20
2022-08-10T11:38:28.631Z,1.30
2022-08-10T11:40:36.632Z,1.58
2022-08-10T11:43:07.740Z,1.30
2022-08-10T11:45:37.646Z,0.95
2022-08-10T11:48:54.360Z,1.10
2022-08-10T11:51:58.500Z,0.82
2022-08-10T11:54:43.765Z,1.13
2022-08-10T11:57:12.440Z,1.20
2022-08-10T11:59:57.867Z,1.13
2022-08-10T12:02:31.988Z,1.50
2022-08-10T12:05:12.582Z,1.00
2022-08-10T12:10:04.071Z,1.00
2022-08-10T12:10:40.745Z,0.70
2022-08-10T12:13:15.281Z,1.00
2022-08-10T12:16:05.115Z,1.15
2022-08-10T12:18:46.299Z,1.27
2022-08-10T12:21:39.664Z,1.10
2022-08-10T12:24:20.480Z,1.30
2022-08-10T12:27:20.440Z,1.48
2022-08-10T12:30:02.053Z,0.95
2022-08-10T12:32:46.286Z,1.25
2022-08-10T12:35:26.039Z,0.95
2022-08-10T12:38:09.003Z,1.20
2022-08-10T12:40:44.836Z,1.20
2022-08-10T12:44:06.947Z,0.90
2022-08-10T12:46:32.675Z,1.20
2022-08-10T12:49:21.490Z,1.20
2022-08-10T12:52:05.420Z,1.40
2022-08-10T12:54:38.155Z,1.00
2022-08-10T12:57:08.564Z,1.63
2022-08-10T12:59:43.829Z,1.10
2022-08-10T13:02:31.828Z,0.80
2022-08-10T13:05:04.654Z,1.30
2022-08-10T13:08:03.497Z,1.38
2022-08-10T13:10:24.381Z,0.93
2022-08-10T13:12:56.379Z,1.17
2022-08-10T13:15:48.541Z,1.50
2022-08-10T13:18:26.747Z,1.20
2022-08-10T13:21:00.496Z,0.82
2022-08-10T13:23:30.427Z,0.90
2022-08-10T13:26:01.621Z,0.70
2022-08-10T13:28:45.625Z,1.48
2022-08-10T13:31:18.723Z,1.00
2022-08-10T13:34:40.107Z,1.20
2022-08-10T13:36:41.703Z,1.00
2022-08-10T13:39:12.400Z,0.90
2022-08-10T13:41:44.259Z,1.10
2022-08-10T13:44:16.082Z,1.02
2022-08-10T13:46:51.306Z,0.73
2022-08-10T13:49:22.106Z,0.85
2022-08-10T13:51:56.850Z,0.82
2022-08-10T13:54:39.204Z,1.13
2022-08-10T13:57:07.678Z,0.95
2022-08-10T14:00:36.182Z,0.90
2022-08-10T14:02:45.505Z,1.25
2022-08-10T14:05:14.607Z,0.98
2022-08-10T14:08:00.242Z,1.30
2022-08-10T14:11:09.384Z,0.88
2022-08-10T14:13:27.839Z,1.10
2022-08-10T14:15:57.645Z,1.10
2022-08-10T14:18:26.557Z,1.75
2022-08-10T14:20:58.594Z,1.25
2022-08-10T14:23:28.067Z,1.00
2022-08-10T14:26:08.785Z,0.95
2022-08-10T14:28:41.842Z,1.33
2022-08-10T14:31:18.646Z,1.20
2022-08-10T14:33:55.382Z,1.52
2022-08-10T14:36:31.442Z,1.25
2022-08-10T14:39:02.883Z,1.15
2022-08-10T14:42:02.803Z,1.20
2022-08-10T14:44:22.139Z,1.58
2022-08-10T14:46:55.853Z,1.10
2022-08-10T14:49:27.325Z,1.27
2022-08-10T14:52:02.633Z,1.45
2022-08-10T14:54:33.701Z,1.95
2022-08-10T14:57:11.881Z,1.17
2022-08-10T15:00:25.382Z,0.77
2022-08-10T15:02:55.863Z,1.17
2022-08-10T15:05:35.980Z,1.00
2022-08-10T15:08:10.067Z,0.77
2022-08-10T15:10:38.901Z,1.13
2022-08-10T15:13:33.857Z,0.75
2022-08-10T15:16:13.577Z,1.08
2022-08-10T15:18:58.482Z,0.90
2022-08-10T15:21:35.660Z,0.95
2022-08-10T15:24:37.057Z,0.80
2022-08-10T15:27:09.246Z,1.17
2022-08-10T15:29:57.551Z,1.10
2022-08-10T15:32:55.996Z,1.30
2022-08-10T15:35:45.330Z,1.15
2022-08-10T15:38:18.577Z,1.48
2022-08-10T15:40:56.829Z,1.05
2022-08-10T15:43:27.621Z,0.90
2022-08-10T15:46:15.737Z,1.10
2022-08-10T15:48:59.919Z,1.15
2022-08-10T15:51:54.232Z,0.98
2022-08-10T15:54:38.396Z,1.02
2022-08-10T15:57:13.521Z,1.38
2022-08-10T15:59:47.784Z,1.15
2022-08-10T16:02:26.198Z,1.38
2022-08-10T16:05:06.701Z,1.27
2022-08-10T16:07:45.758Z,1.35
2022-08-10T16:10:25.327Z,1.30
2022-08-10T16:13:50.807Z,0.80
2022-08-10T16:15:56.038Z,0.93
2022-08-10T16:18:29.727Z,0.90
2022-08-10T16:21:05.718Z,1.27
2022-08-10T16:23:36.665Z,0.80
2022-08-10T16:26:17.575Z,2.00
2022-08-10T16:28:50.649Z,1.20
2022-08-10T16:31:22.641Z,0.98
2022-08-10T16:33:55.117Z,1.15
2022-08-10T16:36:44.982Z,1.25
2022-08-10T16:39:58.443Z,1.08
2022-08-10T16:42:15.394Z,1.10
2022-08-10T16:45:01.458Z,1.20
2022-08-10T16:47:32.707Z,1.38
2022-08-10T16:50:05.097Z,1.50
2022-08-10T16:55:17.103Z,1.15
2022-08-10T16:57:55.999Z,1.20
2022-08-10T17:00:25.888Z,1.10
2022-08-10T17:03:22.862Z,1.23
2022-08-10T17:06:03.524Z,0.90
2022-08-10T17:08:51.701Z,1.50
2022-08-10T17:11:22.272Z,1.17
2022-08-10T17:13:50.052Z,1.17
2022-08-10T17:16:17.952Z,1.30
2022-08-10T17:18:48.271Z,1.17
2022-08-10T17:21:22.452Z,1.30
2022-08-10T17:23:53.875Z,1.52
2022-08-10T17:26:37.050Z,1.80
2022-08-10T17:29:17.487Z,1.20
2022-08-10T17:32:08.623Z,1.63
2022-08-10T17:34:50.074Z,1.48
2022-08-10T17:37:21.006Z,1.30
2022-08-10T17:39:55.091Z,0.93
2022-08-10T17:42:25.579Z,1.25
2022-08-10T17:44:54.805Z,1.13
2022-08-10T17:47:27.301Z,1.45
2022-08-10T17:52:32.128Z,1.30
2022-08-10T17:55:04.839Z,1.17
2022-08-10T17:57:39.329Z,1.35
2022-08-10T18:00:15.828Z,1.50
2022-08-10T18:02:46.407Z,1.10
2022-08-10T18:05:15.474Z,1.90
2022-08-10T18:07:50.586Z,1.10
2022-08-10T18:10:21.329Z,1.35
2022-08-10T18:12:56.937Z,1.63
2022-08-10T18:15:27.723Z,1.25
2022-08-10T18:18:00.310Z,1.27
2022-08-10T18:20:36.154Z,2.00
2022-08-10T18:23:05.072Z,1.88
2022-08-10T18:25:36.585Z,1.10
2022-08-10T18:28:09.705Z,1.60
2022-08-10T18:33:16.016Z,1.35
2022-08-10T18:35:45.717Z,1.08
2022-08-10T18:38:16.025Z,1.05
2022-08-10T18:40:51.277Z,1.52
2022-08-10T18:44:10.138Z,1.35
2022-08-10T18:46:17.447Z,1.17
2022-08-10T18:48:52.443Z,1.38
2022-08-10T18:51:26.093Z,1.90
2022-08-10T18:54:07.824Z,1.48
2022-08-10T18:56:58.021Z,1.38
2022-08-10T19:00:08.447Z,1.30
2022-08-10T19:02:54.827Z,1.10
2022-08-10T19:05:31.491Z,1.17
2022-08-10T19:08:30.662Z,2.08
2022-08-10T19:11:05.442Z,1.40
2022-08-10T19:13:40.179Z,1.13
2022-08-10T19:19:25.660Z,1.33
2022-08-10T19:22:07.295Z,1.48
2022-08-10T19:24:44.955Z,1.48
2022-08-10T19:27:35.056Z,1.00
2022-08-10T19:30:13.392Z,1.20
2022-08-10T19:33:04.873Z,1.73
2022-08-10T19:36:11.652Z,1.45
2022-08-10T19:39:01.054Z,1.33
2022-08-10T19:41:45.008Z,1.20
2022-08-10T19:44:22.520Z,0.90
2022-08-10T19:47:27.307Z,1.77
2022-08-10T19:50:11.675Z,1.48
2022-08-10T19:52:49.850Z,1.75
2022-08-10T19:55:20.843Z,1.70
2022-08-10T19:58:02.119Z,1.77
2022-08-10T20:00:54.719Z,1.90
2022-08-10T20:03:29.325Z,1.70
2022-08-10T20:06:20.603Z,1.60
2022-08-10T20:09:14.985Z,1.60
2022-08-10T20:12:03.203Z,1.98
2022-08-10T20:14:42.740Z,1.50
2022-08-10T20:17:27.796Z,1.38
2022-08-10T20:20:35.482Z,1.48
2022-08-10T20:23:19.211Z,1.50
2022-08-10T20:26:10.876Z,1.80
2022-08-10T20:28:57.904Z,1.55
2022-08-10T20:31:56.247Z,1.73
2022-08-10T20:34:28.747Z,1.90
2022-08-10T20:37:09.810Z,1.75
2022-08-10T20:40:14.562Z,1.60
2022-08-10T20:43:08.808Z,2.15
2022-08-10T20:46:08.011Z,2.08
2022-08-10T20:48:49.554Z,1.98
2022-08-10T20:51:58.224Z,2.40
2022-08-10T20:54:15.909Z,2.80
2022-08-10T20:57:54.526Z,2.08
2022-08-10T21:00:42.669Z,3.20
2022-08-10T21:03:31.890Z,1.70
2022-08-10T21:06:43.347Z,2.15
2022-08-10T21:09:14.925Z,2.50
2022-08-10T21:12:17.733Z,2.92
2022-08-10T21:15:14.650Z,2.10
2022-08-10T21:17:48.829Z,1.85
2022-08-10T21:20:47.027Z,2.65
2022-08-10T21:23:17.867Z,1.92
2022-08-10T21:26:07.580Z,2.58
2022-08-10T21:29:21.368Z,2.72
2022-08-10T21:32:11.124Z,2.13
2022-08-10T21:34:55.355Z,1.98
2022-08-10T21:37:56.474Z,2.35
2022-08-10T21:40:37.472Z,1.52
2022-08-10T21:44:04.497Z,2.05
2022-08-10T21:47:40.013Z,1.90
2022-08-10T21:50:28.803Z,2.05
2022-08-10T21:53:48.325Z,1.60
2022-08-10T21:56:46.916Z,2.25
2022-08-10T21:59:58.874Z,1.80
2022-08-10T22:02:50.172Z,1.80
2022-08-10T22:05:46.966Z,1.67
2022-08-10T22:08:37.444Z,2.00
2022-08-10T22:11:29.273Z,2.33
2022-08-10T22:14:16.219Z,2.95
2022-08-10T22:18:00.267Z,1.80
2022-08-10T22:20:30.519Z,2.80
2022-08-10T22:23:19.613Z,1.52
2022-08-10T22:26:36.774Z,1.60
2022-08-10T22:29:42.829Z,2.47
2022-08-10T22:32:55.344Z,1.40
2022-08-10T22:36:11.612Z,1.67
2022-08-10T22:39:10.836Z,2.65
2022-08-10T22:42:29.595Z,3.80
2022-08-10T22:45:37.394Z,2.25
2022-08-10T22:48:25.383Z,2.95
2022-08-10T22:50:56.789Z,2.15
2022-08-10T22:53:53.568Z,2.00
2022-08-10T22:56:41.127Z,2.53
2022-08-10T22:59:11.140Z,2.30
2022-08-10T23:02:10.053Z,3.08
2022-08-10T23:04:45.172Z,2.30
2022-08-10T23:07:26.751Z,4.97
2022-08-10T23:09:59.988Z,13.50
2022-08-10T23:12:36.326Z,12.88
2022-08-10T23:15:26.756Z,16.17
2022-08-10T23:18:16.194Z,2.40
2022-08-10T23:20:45.733Z,5.43
2022-08-10T23:23:23.876Z,2.50
2022-08-10T23:25:57.379Z,3.15
2022-08-10T23:28:58.615Z,2.33
2022-08-10T23:32:01.057Z,2.22
2022-08-10T23:34:07.696Z,1.95
2022-08-10T23:36:39.464Z,3.28
2022-08-10T23:39:26.687Z,2.78
2022-08-10T23:42:04.581Z,2.10
2022-08-10T23:44:45.300Z,3.10
2022-08-10T23:47:18.206Z,2.38
2022-08-10T23:49:49.220Z,1.88
2022-08-10T23:52:26.631Z,5.68
2022-08-10T23:54:57.411Z,2.70
2022-08-10T23:57:28.050Z,2.50
